Creek Data

    Home     View Charts     View Raw Data     Messages

ID Distance Battery Voltage Battery Current Internal Temp Internal Humidity External Temp Solar Input rssi snr Time Stamp Record
35950 0.0 4.03 -5 54 41 56 0 -81 7 03/25/2025 01:00 AM 17721
35949 0.0 4.03 -5 54 41 55 0 -82 8 03/25/2025 12:45 AM 17720
35948 0.0 3.98 -35 55 41 56 0 -80 7 03/25/2025 12:30 AM 17719
35947 0.0 3.98 -5 56 41 56 0 -81 8 03/25/2025 12:15 AM 17718
35946 0.0 3.98 -5 57 40 59 0 -81 7 03/25/2025 12:00 AM 17717
35945 0.0 3.98 -5 57 40 60 0 -81 8 03/24/2025 11:45 PM 17716
35944 0.0 3.98 -5 57 41 60 0 -80 7 03/24/2025 11:30 PM 17715
35943 0.0 3.99 -5 57 41 60 0 -80 8 03/24/2025 11:15 PM 17714
35942 0.0 3.99 -5 57 41 60 0 -82 7 03/24/2025 11:00 PM 17713
35941 0.0 3.99 -5 58 42 59 0 -82 7 03/24/2025 10:46 PM 17712
35940 0.0 3.99 -5 58 42 60 0 -81 8 03/24/2025 10:30 PM 17711
35939 0.0 3.99 -5 58 42 60 0.1 -81 7 03/24/2025 10:15 PM 17710
35938 0.0 3.99 -5 60 42 62 0.1 -80 7 03/24/2025 10:00 PM 17709
35937 0.0 3.99 -5 60 42 62 0 -81 7 03/24/2025 09:45 PM 17708
35936 0.0 3.99 -5 60 43 62 0 -81 7 03/24/2025 09:30 PM 17707
35935 0.0 3.99 -5 60 44 60 0 -81 8 03/24/2025 09:15 PM 17706
35934 0.0 3.99 -5 61 44 61 0 -81 8 03/24/2025 09:00 PM 17705
35933 0.0 4.00 -5 63 45 62 0 -80 8 03/24/2025 08:45 PM 17704
35932 0.0 4.05 -5 64 46 63 0 -80 7 03/24/2025 08:30 PM 17703
35931 0.0 4.00 -5 66 46 68 0.1 -80 8 03/24/2025 08:15 PM 17702
35930 0.0 4.00 -5 68 47 69 0 -80 7 03/24/2025 08:00 PM 17701
35929 0.0 4.05 -5 70 48 71 0 -80 8 03/24/2025 07:45 PM 17700
35928 0.0 4.00 -5 73 49 71 1.2 -80 7 03/24/2025 07:30 PM 17699
35927 0.0 3.99 -39 78 48 73 4.1 -81 8 03/24/2025 07:15 PM 17698
35926 0.0 4.01 0 82 47 76 4.5 -81 9 03/24/2025 07:00 PM 17697